createdAt,value
2019-04-05T00:00:43.102Z,98.30
2019-04-05T00:03:11.557Z,98.60
2019-04-05T00:05:39.999Z,98.70
2019-04-05T00:08:08.492Z,98.90
2019-04-05T00:10:36.891Z,98.30
2019-04-05T00:13:05.320Z,98.40
2019-04-05T00:15:33.739Z,98.60
2019-04-05T00:18:02.135Z,98.40
2019-04-05T00:20:30.578Z,98.40
2019-04-05T00:22:58.975Z,98.20
2019-04-05T00:25:27.410Z,98.40
2019-04-05T00:27:55.836Z,98.10
2019-04-05T00:30:24.257Z,98.00
2019-04-05T00:32:52.653Z,98.30
2019-04-05T00:35:21.095Z,97.80
2019-04-05T00:37:49.559Z,97.60
2019-04-05T00:40:17.993Z,97.60
2019-04-05T00:42:46.415Z,97.80
2019-04-05T00:45:27.197Z,97.90
2019-04-05T00:47:45.236Z,98.00
2019-04-05T00:50:13.801Z,97.90
2019-04-05T00:52:42.221Z,97.90
2019-04-05T00:55:10.912Z,97.90
2019-04-05T00:57:39.335Z,97.90
2019-04-05T01:00:09.014Z,97.70
2019-04-05T01:02:37.451Z,97.70
2019-04-05T01:05:06.931Z,97.80
2019-04-05T01:07:35.400Z,97.80
2019-04-05T01:10:05.676Z,97.80
2019-04-05T01:12:34.829Z,97.80
2019-04-05T01:15:04.501Z,97.80
2019-04-05T01:17:32.976Z,97.80
2019-04-05T01:20:03.255Z,97.60
2019-04-05T01:22:34.903Z,97.60
2019-04-05T01:25:04.877Z,97.60
2019-04-05T01:27:34.685Z,97.80
2019-04-05T01:30:04.558Z,97.70
2019-04-05T01:32:33.067Z,97.60
2019-04-05T01:35:01.483Z,97.60
2019-04-05T01:37:30.022Z,97.90
2019-04-05T01:39:58.497Z,98.20
2019-04-05T01:42:27.069Z,98.40
2019-04-05T01:44:55.657Z,98.70
2019-04-05T01:47:24.224Z,98.80
2019-04-05T01:49:52.713Z,98.80
2019-04-05T01:52:21.208Z,98.10
2019-04-05T01:54:49.630Z,98.00
2019-04-05T01:57:18.136Z,98.40
2019-04-05T01:59:46.549Z,98.70
2019-04-05T02:02:15.109Z,99.10
2019-04-05T02:04:43.563Z,99.30
2019-04-05T02:07:12.078Z,99.50
2019-04-05T02:09:40.568Z,99.60
2019-04-05T02:12:09.076Z,99.70
2019-04-05T02:14:37.504Z,99.70
2019-04-05T02:17:06.069Z,99.60
2019-04-05T02:19:34.509Z,99.50
2019-04-05T02:22:02.996Z,99.50
2019-04-05T02:24:31.478Z,99.20
2019-04-05T02:26:59.956Z,98.70
2019-04-05T02:29:28.437Z,98.60
2019-04-05T02:31:56.940Z,98.60
2019-04-05T02:34:25.448Z,98.80
2019-04-05T02:36:54.003Z,98.90
2019-04-05T02:39:22.524Z,99.10
2019-04-05T02:41:52.363Z,99.20
2019-04-05T02:44:22.953Z,99.30
2019-04-05T02:46:54.693Z,99.10
2019-04-05T02:49:26.247Z,98.60
2019-04-05T02:51:56.563Z,98.30
2019-04-05T02:54:25.953Z,98.30
2019-04-05T02:56:54.697Z,98.30
2019-04-05T02:59:24.363Z,98.20
2019-04-05T03:01:53.841Z,98.10
2019-04-05T03:04:22.921Z,97.60
2019-04-05T03:06:52.442Z,97.80
2019-04-05T03:09:22.125Z,97.30
2019-04-05T03:11:51.276Z,97.20
2019-04-05T03:14:20.745Z,97.30
2019-04-05T03:16:52.280Z,97.50
2019-04-05T03:19:23.690Z,97.60
2019-04-05T03:21:55.176Z,98.00
2019-04-05T03:24:26.677Z,98.30
2019-04-05T03:27:00.789Z,98.20
2019-04-05T03:29:29.765Z,97.90
2019-04-05T03:31:58.727Z,97.80
2019-04-05T03:34:27.712Z,98.50
2019-04-05T03:36:56.327Z,98.90
2019-04-05T03:39:25.167Z,99.20
2019-04-05T03:41:54.688Z,99.30
2019-04-05T03:44:23.477Z,99.40
2019-04-05T03:46:56.732Z,99.50
2019-04-05T03:49:23.756Z,99.60
2019-04-05T03:51:52.429Z,99.70
2019-04-05T03:54:21.474Z,99.90
2019-04-05T03:56:50.356Z,99.90
2019-04-05T03:59:19.408Z,99.90
2019-04-05T04:01:48.071Z,99.60
2019-04-05T04:04:16.546Z,99.60
2019-04-05T04:06:45.119Z,99.50
2019-04-05T04:09:13.606Z,99.60
2019-04-05T04:11:42.109Z,99.70
2019-04-05T04:14:11.248Z,99.70
2019-04-05T04:16:40.017Z,99.70
2019-04-05T04:19:08.507Z,99.70
2019-04-05T04:21:42.652Z,99.70
2019-04-05T04:24:11.351Z,99.80
2019-04-05T04:26:41.171Z,99.80
2019-04-05T04:29:09.651Z,99.90
2019-04-05T04:31:38.424Z,99.90
2019-04-05T04:34:06.971Z,99.90
2019-04-05T04:36:35.665Z,99.90
2019-04-05T04:39:05.834Z,99.90
2019-04-05T04:41:34.400Z,99.80
2019-04-05T04:44:03.736Z,99.70
2019-04-05T04:46:33.310Z,99.80
2019-04-05T04:49:02.460Z,99.80
2019-04-05T04:51:31.813Z,99.30
2019-04-05T04:54:00.581Z,98.90
2019-04-05T04:56:29.232Z,99.00
2019-04-05T04:58:58.033Z,99.10
2019-04-05T05:01:28.184Z,99.40
2019-04-05T05:03:57.055Z,98.90
2019-04-05T05:06:28.837Z,98.60
2019-04-05T05:08:59.001Z,98.40
2019-04-05T05:11:27.639Z,98.00
2019-04-05T05:13:56.077Z,98.00
2019-04-05T05:16:26.407Z,98.00
2019-04-05T05:18:54.979Z,98.40
2019-04-05T05:21:23.825Z,98.80
2019-04-05T05:23:52.401Z,99.20
2019-04-05T05:26:22.432Z,99.50
2019-04-05T05:28:51.515Z,99.70
2019-04-05T05:31:21.539Z,99.80
2019-04-05T05:33:50.048Z,99.80
2019-04-05T05:36:18.837Z,99.90
2019-04-05T05:38:47.350Z,99.90
2019-04-05T05:41:19.013Z,99.80
2019-04-05T05:43:47.637Z,99.10
2019-04-05T05:46:18.874Z,98.80
2019-04-05T05:48:47.392Z,98.70
2019-04-05T05:51:15.877Z,98.70
2019-04-05T05:53:44.321Z,98.90
2019-04-05T05:56:12.736Z,99.20
2019-04-05T05:58:41.160Z,99.50
2019-04-05T06:01:11.249Z,99.70
2019-04-05T06:03:39.680Z,99.50
2019-04-05T06:06:08.097Z,99.70
2019-04-05T06:08:37.092Z,99.60
2019-04-05T06:11:05.536Z,99.60
2019-04-05T06:13:33.948Z,99.80
2019-04-05T06:16:02.453Z,99.90
2019-04-05T06:18:32.187Z,99.90
2019-04-05T06:21:03.331Z,99.90
2019-04-05T06:23:34.264Z,99.80
2019-04-05T06:26:02.955Z,99.80
2019-04-05T06:28:31.396Z,99.50
2019-04-05T06:30:59.899Z,99.30
2019-04-05T06:33:31.903Z,98.70
2019-04-05T06:35:58.481Z,98.20
2019-04-05T06:38:26.892Z,97.70
2019-04-05T06:40:55.340Z,97.60
2019-04-05T06:43:23.756Z,97.50
2019-04-05T06:45:52.232Z,97.50
2019-04-05T06:48:20.692Z,97.30
2019-04-05T06:50:49.137Z,97.00
2019-04-05T06:53:17.551Z,96.90
2019-04-05T06:55:47.522Z,97.10
2019-04-05T06:58:19.766Z,97.20
2019-04-05T07:00:57.045Z,97.30
2019-04-05T07:03:16.314Z,97.70
2019-04-05T07:05:46.289Z,98.20
2019-04-05T07:08:14.704Z,98.20
2019-04-05T07:10:45.271Z,98.10
2019-04-05T07:13:15.431Z,97.90
2019-04-05T07:15:43.846Z,97.10
2019-04-05T07:18:13.953Z,97.20
2019-04-05T07:20:42.373Z,97.30
2019-04-05T07:23:12.360Z,97.70
2019-04-05T07:25:40.785Z,97.70
2019-04-05T07:28:09.220Z,97.20
2019-04-05T07:30:37.633Z,96.50
2019-04-05T07:33:06.067Z,95.90
2019-04-05T07:35:34.481Z,95.80
2019-04-05T07:38:02.958Z,95.40
2019-04-05T07:40:31.437Z,95.60
2019-04-05T07:43:00.381Z,96.10
2019-04-05T07:45:28.809Z,96.30
2019-04-05T07:47:57.236Z,96.50
2019-04-05T07:50:25.664Z,96.40
2019-04-05T07:52:57.121Z,96.50
2019-04-05T07:55:28.541Z,96.40
2019-04-05T07:58:00.093Z,96.30
2019-04-05T08:00:49.127Z,96.10
2019-04-05T08:03:18.442Z,95.40
2019-04-05T08:05:47.012Z,95.10
2019-04-05T08:08:18.516Z,95.60
2019-04-05T08:10:47.195Z,95.20
2019-04-05T08:13:16.967Z,95.00
2019-04-05T08:15:45.377Z,95.00
2019-04-05T08:18:13.821Z,95.00
2019-04-05T08:20:45.055Z,93.90
2019-04-05T08:23:13.508Z,94.40
2019-04-05T08:25:41.929Z,93.80
2019-04-05T08:28:10.344Z,93.50
2019-04-05T08:30:38.777Z,93.10
2019-04-05T08:33:07.230Z,93.20
2019-04-05T08:35:35.715Z,92.80
2019-04-05T08:38:04.818Z,92.60
2019-04-05T08:40:33.264Z,92.50
2019-04-05T08:43:01.682Z,92.30
2019-04-05T08:45:30.184Z,93.00
2019-04-05T08:47:58.619Z,91.40
2019-04-05T08:50:28.584Z,90.90
2019-04-05T08:52:57.013Z,91.10
2019-04-05T08:55:25.453Z,91.40
2019-04-05T08:57:53.883Z,91.40
2019-04-05T09:00:22.457Z,91.50
2019-04-05T09:02:50.994Z,91.50
2019-04-05T09:05:19.605Z,91.00
2019-04-05T09:07:48.017Z,90.50
2019-04-05T09:10:16.549Z,90.60
2019-04-05T09:12:44.969Z,90.40
2019-04-05T09:15:13.744Z,90.60
2019-04-05T09:17:42.166Z,90.80
2019-04-05T09:20:10.864Z,91.00
2019-04-05T09:22:39.333Z,90.50
2019-04-05T09:25:07.985Z,90.80
2019-04-05T09:27:36.402Z,90.10
2019-04-05T09:30:07.048Z,90.60
2019-04-05T09:32:36.690Z,90.20
2019-04-05T09:35:07.282Z,90.40
2019-04-05T09:37:35.700Z,90.00
2019-04-05T09:40:06.480Z,89.20
2019-04-05T09:42:34.912Z,90.00
2019-04-05T09:45:05.141Z,90.10
2019-04-05T09:47:33.598Z,88.40
2019-04-05T09:50:02.010Z,87.70
2019-04-05T09:52:30.475Z,88.30
2019-04-05T09:54:58.907Z,87.90
2019-04-05T09:57:27.341Z,86.40
2019-04-05T09:59:55.768Z,86.60
2019-04-05T10:02:24.214Z,86.70
2019-04-05T10:04:52.636Z,86.20
2019-04-05T10:07:21.084Z,85.00
2019-04-05T10:09:50.522Z,84.20
2019-04-05T10:12:19.116Z,84.30
2019-04-05T10:14:47.621Z,84.00
2019-04-05T10:17:16.052Z,82.50
2019-04-05T10:19:50.229Z,82.20
2019-04-05T10:22:14.629Z,82.10
2019-04-05T10:24:43.045Z,83.10
2019-04-05T10:27:11.479Z,82.50
2019-04-05T10:29:39.896Z,83.20
2019-04-05T10:32:08.333Z,82.20
2019-04-05T10:34:36.749Z,80.60
2019-04-05T10:37:05.252Z,80.50
2019-04-05T10:39:33.708Z,80.00
2019-04-05T10:42:03.799Z,80.90
2019-04-05T10:44:32.525Z,79.30
2019-04-05T10:47:00.937Z,79.60
2019-04-05T10:49:29.382Z,79.10
2019-04-05T10:51:57.817Z,79.10
2019-04-05T10:54:26.264Z,79.30
2019-04-05T10:56:54.743Z,79.20
2019-04-05T10:59:23.195Z,79.20
2019-04-05T11:01:51.613Z,80.20
2019-04-05T11:04:20.083Z,81.10
2019-04-05T11:06:48.480Z,82.90
2019-04-05T11:09:16.913Z,82.30
2019-04-05T11:11:45.322Z,81.80
2019-04-05T11:14:14.323Z,81.70
2019-04-05T11:16:42.860Z,81.50
2019-04-05T11:19:11.299Z,82.10
2019-04-05T11:21:39.712Z,81.80
2019-04-05T11:24:08.163Z,84.10
2019-04-05T11:26:36.582Z,85.60
2019-04-05T11:29:05.095Z,83.70
2019-04-05T11:31:33.511Z,82.40
2019-04-05T11:34:02.045Z,82.10
2019-04-05T11:36:31.149Z,82.90
2019-04-05T11:39:00.141Z,83.80
2019-04-05T11:41:29.494Z,83.90
2019-04-05T11:44:00.856Z,83.70
2019-04-05T11:46:31.606Z,83.00
2019-04-05T11:49:01.369Z,83.20
2019-04-05T11:51:31.161Z,82.60
2019-04-05T11:53:59.579Z,82.90
2019-04-05T11:56:28.088Z,81.80
2019-04-05T11:58:56.676Z,81.80
2019-04-05T12:01:43.143Z,80.10
2019-04-05T12:04:11.581Z,82.50
2019-04-05T12:06:40.024Z,81.60
2019-04-05T12:09:08.785Z,81.50
2019-04-05T12:11:37.302Z,82.00
2019-04-05T12:14:05.886Z,81.90
2019-04-05T12:16:35.974Z,82.30
2019-04-05T12:19:05.369Z,80.80
2019-04-05T12:21:34.812Z,81.30
2019-04-05T12:24:03.973Z,82.20
2019-04-05T12:26:34.408Z,81.60
2019-04-05T12:29:02.601Z,81.10
2019-04-05T12:31:31.058Z,82.10
2019-04-05T12:33:59.480Z,84.00
2019-04-05T12:36:27.919Z,82.50
2019-04-05T12:38:56.414Z,82.70
2019-04-05T12:41:24.845Z,83.40
2019-04-05T12:43:53.289Z,84.50
2019-04-05T12:46:21.722Z,84.90
2019-04-05T12:48:50.146Z,84.50
2019-04-05T12:51:18.725Z,84.30
2019-04-05T12:53:47.237Z,84.30
2019-04-05T12:56:15.757Z,86.30
2019-04-05T12:58:44.189Z,85.00
2019-04-05T13:01:12.612Z,84.20
2019-04-05T13:03:41.058Z,85.20
2019-04-05T13:06:09.489Z,85.10
2019-04-05T13:08:37.938Z,86.80
2019-04-05T13:11:06.437Z,86.40
2019-04-05T13:13:34.880Z,86.70
2019-04-05T13:16:03.468Z,86.10
2019-04-05T13:18:31.911Z,86.00
2019-04-05T13:21:02.374Z,86.40
2019-04-05T13:23:30.607Z,85.60
2019-04-05T13:25:59.092Z,85.00
2019-04-05T13:28:27.520Z,86.90
2019-04-05T13:30:55.954Z,85.00
2019-04-05T13:33:24.480Z,85.20
2019-04-05T13:35:52.980Z,86.20
2019-04-05T13:38:21.436Z,86.80
2019-04-05T13:40:49.929Z,86.90
2019-04-05T13:43:18.356Z,88.10
2019-04-05T13:45:46.781Z,87.70
2019-04-05T13:48:15.220Z,86.80
2019-04-05T13:50:43.666Z,86.60
2019-04-05T13:53:12.108Z,88.00
2019-04-05T13:55:41.267Z,87.60
2019-04-05T13:58:11.303Z,88.30
2019-04-05T14:00:39.999Z,89.30
2019-04-05T14:03:08.421Z,88.50
2019-04-05T14:05:36.941Z,88.00
2019-04-05T14:08:10.457Z,88.50
2019-04-05T14:10:35.609Z,87.80
2019-04-05T14:13:04.523Z,88.10
2019-04-05T14:15:33.060Z,89.20
2019-04-05T14:18:01.478Z,88.10
2019-04-05T14:20:29.927Z,87.70
2019-04-05T14:22:58.342Z,87.30
2019-04-05T14:25:30.003Z,88.10
2019-04-05T14:27:56.931Z,88.80
2019-04-05T14:30:25.537Z,88.70
2019-04-05T14:32:55.752Z,89.30
2019-04-05T14:35:25.265Z,88.70
2019-04-05T14:37:54.509Z,88.10
2019-04-05T14:40:23.718Z,88.40
2019-04-05T14:42:53.755Z,88.90
2019-04-05T14:45:23.888Z,89.70
2019-04-05T14:47:52.337Z,89.30
2019-04-05T14:50:22.397Z,89.70
2019-04-05T14:52:50.838Z,90.00
2019-04-05T14:55:22.024Z,88.60
2019-04-05T14:57:50.523Z,88.60
2019-04-05T15:00:22.131Z,88.60
2019-04-05T15:02:50.567Z,89.00
2019-04-05T15:05:20.648Z,89.80
2019-04-05T15:07:54.808Z,89.00
2019-04-05T15:10:25.021Z,88.90
2019-04-05T15:12:55.510Z,90.00
2019-04-05T15:15:25.478Z,89.80
2019-04-05T15:17:53.937Z,90.20
2019-04-05T15:20:22.586Z,90.70
2019-04-05T15:22:51.035Z,90.60
2019-04-05T15:25:21.566Z,90.50
2019-04-05T15:27:55.124Z,90.80
2019-04-05T15:30:20.082Z,90.50
2019-04-05T15:32:51.279Z,90.40
2019-04-05T15:35:18.769Z,90.60
2019-04-05T15:37:47.233Z,91.00
2019-04-05T15:40:15.893Z,90.70
2019-04-05T15:42:44.351Z,90.50
2019-04-05T15:45:15.740Z,90.20
2019-04-05T15:47:43.291Z,90.40
2019-04-05T15:50:11.846Z,90.50
2019-04-05T15:52:40.290Z,90.10
2019-04-05T15:55:08.855Z,90.20
2019-04-05T15:57:39.459Z,90.10
2019-04-05T16:00:11.191Z,90.20
2019-04-05T16:02:42.737Z,89.70
2019-04-05T16:05:10.292Z,89.70
2019-04-05T16:07:38.827Z,90.00
2019-04-05T16:10:10.544Z,90.10
2019-04-05T16:12:38.984Z,90.00
2019-04-05T16:15:15.597Z,90.10
2019-04-05T16:17:44.047Z,90.00
2019-04-05T16:20:15.701Z,90.10
2019-04-05T16:22:45.177Z,90.20
2019-04-05T16:25:15.038Z,90.10
2019-04-05T16:27:43.449Z,90.10
2019-04-05T16:30:12.358Z,90.20
2019-04-05T16:32:40.986Z,90.40
2019-04-05T16:35:14.596Z,90.50
2019-04-05T16:37:44.355Z,90.60
2019-04-05T16:40:13.630Z,90.60
2019-04-05T16:42:42.139Z,90.80
2019-04-05T16:45:11.822Z,90.70
2019-04-05T16:47:40.403Z,91.00
2019-04-05T16:50:09.882Z,90.80
2019-04-05T16:52:44.662Z,90.90
2019-04-05T16:55:08.976Z,91.00
2019-04-05T16:57:37.464Z,91.00
2019-04-05T17:00:11.920Z,90.90
2019-04-05T17:02:40.485Z,91.00
2019-04-05T17:05:09.652Z,90.80
2019-04-05T17:07:38.093Z,91.00
2019-04-05T17:10:07.262Z,91.30
2019-04-05T17:12:38.394Z,91.00
2019-04-05T17:15:07.553Z,91.20
2019-04-05T17:17:35.987Z,91.10
2019-04-05T17:20:06.055Z,91.10
2019-04-05T17:22:34.463Z,91.20
2019-04-05T17:25:03.520Z,91.20
2019-04-05T17:27:31.975Z,91.40
2019-04-05T17:30:00.407Z,91.50
2019-04-05T17:32:28.865Z,91.40
2019-04-05T17:34:57.293Z,91.60
2019-04-05T17:37:26.767Z,91.70
2019-04-05T17:39:56.330Z,92.10
2019-04-05T17:42:24.818Z,91.90
2019-04-05T17:44:53.253Z,92.00
2019-04-05T17:47:21.953Z,92.10
2019-04-05T17:49:50.388Z,92.00
2019-04-05T17:52:18.860Z,91.80
2019-04-05T17:54:47.304Z,91.50
2019-04-05T17:57:16.088Z,92.00
2019-04-05T17:59:44.645Z,92.00
2019-04-05T18:02:13.076Z,92.00
2019-04-05T18:04:41.515Z,92.00
2019-04-05T18:07:12.728Z,92.00
2019-04-05T18:09:41.155Z,92.00
2019-04-05T18:12:09.584Z,92.00
2019-04-05T18:14:38.006Z,92.10
2019-04-05T18:17:06.527Z,91.90
2019-04-05T18:19:34.953Z,92.00
2019-04-05T18:22:03.516Z,92.10
2019-04-05T18:24:31.936Z,92.20
2019-04-05T18:27:00.380Z,92.10
2019-04-05T18:29:28.969Z,92.20
2019-04-05T18:32:00.227Z,92.40
2019-04-05T18:34:28.705Z,92.50
2019-04-05T18:36:58.444Z,92.50
2019-04-05T18:39:28.498Z,92.50
2019-04-05T18:41:56.932Z,92.70
2019-04-05T18:44:25.401Z,92.70
2019-04-05T18:46:53.892Z,92.90
2019-04-05T18:49:22.323Z,92.70
2019-04-05T18:51:50.753Z,92.70
2019-04-05T18:54:19.233Z,92.70
2019-04-05T18:56:47.669Z,92.70
2019-04-05T18:59:16.117Z,93.30
2019-04-05T19:01:44.557Z,92.90
2019-04-05T19:04:13.003Z,93.00
2019-04-05T19:06:41.507Z,92.90
2019-04-05T19:09:15.555Z,93.00
2019-04-05T19:11:43.977Z,93.10
2019-04-05T19:14:14.148Z,93.20
2019-04-05T19:16:42.602Z,93.30
2019-04-05T19:19:11.101Z,93.30
2019-04-05T19:21:40.930Z,93.80
2019-04-05T19:24:09.431Z,93.90
2019-04-05T19:26:55.416Z,93.80
2019-04-05T19:29:26.611Z,93.80
2019-04-05T19:49:29.458Z,94.70
2019-04-05T19:52:01.157Z,94.60
2019-04-05T19:54:29.578Z,94.50
2019-04-05T19:57:02.292Z,94.50
2019-04-05T19:59:32.302Z,94.40
2019-04-05T20:02:05.243Z,94.40
2019-04-05T20:04:36.680Z,94.50
2019-04-05T20:07:10.007Z,94.50
2019-04-05T20:09:38.432Z,94.60
2019-04-05T20:12:11.209Z,94.70
2019-04-05T20:14:38.861Z,94.90
2019-04-05T20:17:08.953Z,95.30
2019-04-05T20:19:37.460Z,95.60
2019-04-05T20:22:05.979Z,95.80
2019-04-05T20:24:34.381Z,96.00
2019-04-05T20:27:02.847Z,96.10
2019-04-05T20:29:31.273Z,96.00
2019-04-05T20:32:00.023Z,95.90
2019-04-05T20:34:28.486Z,95.80
2019-04-05T20:36:56.909Z,95.90
2019-04-05T20:39:25.342Z,96.30
2019-04-05T20:44:13.661Z,96.20
2019-04-05T20:46:44.358Z,96.60
2019-04-05T20:49:16.441Z,96.60
2019-04-05T20:51:46.222Z,96.70
2019-04-05T20:54:24.578Z,96.70
2019-04-05T20:56:47.216Z,96.70
2019-04-05T20:59:16.789Z,96.70
2019-04-05T21:01:45.172Z,96.70
2019-04-05T21:04:23.485Z,96.80
2019-04-05T21:06:51.925Z,97.10
2019-04-05T21:09:20.406Z,97.00
2019-04-05T21:11:48.798Z,96.60
2019-04-05T21:14:18.895Z,96.50
2019-04-05T21:16:49.461Z,96.70
2019-04-05T21:19:17.894Z,96.90
2019-04-05T21:21:47.984Z,97.00
2019-04-05T21:24:16.399Z,97.10
2019-04-05T21:26:48.860Z,97.20
2019-04-05T21:29:17.272Z,97.20
2019-04-05T21:31:47.917Z,97.20
2019-04-05T21:34:17.403Z,97.00
2019-04-05T21:36:45.825Z,97.00
2019-04-05T21:39:15.825Z,96.80
2019-04-05T21:41:44.233Z,96.70
2019-04-05T21:44:12.682Z,96.90
2019-04-05T21:46:41.125Z,97.10
2019-04-05T21:49:11.314Z,97.30
2019-04-05T21:51:42.972Z,97.40
2019-04-05T21:54:11.432Z,97.80
2019-04-05T21:56:39.854Z,97.50
2019-04-05T21:59:08.304Z,96.90
2019-04-05T22:01:36.846Z,96.80
2019-04-05T22:04:05.706Z,97.00
2019-04-05T22:06:37.299Z,97.30
2019-04-05T22:09:08.413Z,97.40
2019-04-05T22:11:38.401Z,97.30
2019-04-05T22:14:12.272Z,97.40
2019-04-05T22:16:42.378Z,97.60
2019-04-05T22:19:14.981Z,97.70
2019-04-05T22:21:43.460Z,97.70
2019-04-05T22:24:15.021Z,98.00
2019-04-05T22:26:43.485Z,98.20
2019-04-05T22:29:11.908Z,98.20
2019-04-05T22:31:42.712Z,98.20
2019-04-05T22:34:12.142Z,98.10
2019-04-05T22:36:43.244Z,98.20
2019-04-05T22:39:15.876Z,98.30
2019-04-05T22:41:48.860Z,98.30
2019-04-05T22:44:16.448Z,98.50
2019-04-05T22:46:47.935Z,98.40
2019-04-05T22:49:17.894Z,98.40
2019-04-05T22:51:46.348Z,98.30
2019-04-05T22:54:14.774Z,98.10
2019-04-05T22:56:43.368Z,98.10
2019-04-05T22:59:12.793Z,98.40
2019-04-05T23:01:41.514Z,98.60
2019-04-05T23:04:11.611Z,98.60
2019-04-05T23:06:42.313Z,99.00
2019-04-05T23:09:10.267Z,99.10
2019-04-05T23:11:38.787Z,99.20
2019-04-05T23:14:08.048Z,98.80
2019-04-05T23:16:36.501Z,98.60
2019-04-05T23:19:07.867Z,98.80
2019-04-05T23:21:37.968Z,99.10
2019-04-05T23:24:06.410Z,99.30
2019-04-05T23:26:36.354Z,99.20
2019-04-05T23:29:07.729Z,99.10
2019-04-05T23:31:36.164Z,99.50
2019-04-05T23:34:04.663Z,99.20
2019-04-05T23:36:36.067Z,99.30
2019-04-05T23:39:05.949Z,99.20
2019-04-05T23:41:37.358Z,99.40
2019-04-05T23:44:05.880Z,99.60
2019-04-05T23:46:34.299Z,99.70
2019-04-05T23:49:04.381Z,99.30
2019-04-05T23:51:32.788Z,98.70
2019-04-05T23:54:01.256Z,99.00
2019-04-05T23:56:29.651Z,99.30
2019-04-05T23:58:58.085Z,99.10
